Strona główna
METAR-TAF:

METAR-TAF

Lotnisko :

Elkhart Municipal Airport

Elkhart, Indiana, Stany Zjednoczone

Szerokość geograficzna: 41-43N, Długość geograficzna: 086-00W, wysokość: 237 m

Aktualna obserwacja pogody

Raport powstał 3 godziny i 9 minut temu, godzina 22:55 UTC
Wiatr 5 kt od północny zachód
Temperatura 3°C
Wilgotność 60%
Ciśnienie 1019 hPa
Widzialność: 16.1 km
bezchmurnie

METAR: KEKM 162255Z 31005KT 10SM CLR 03/M04 A3010 RMK AO2 LAST

czas: 21:04 (02:04 UTC)


TAF: brakujący

Obserwacja i prognoza pogody dla ponad 4000 lotnisk (raport METAR i TAF).

Dostępne stacje oznaczono żółtymi i czerwonymi punktami na mapie.

Najedź kursorem aby zobaczyć nazwę stacji.

Kliknij aby zobaczyć obserwacje i prognozy pogody.

Aby zmienić mapę: kliknij na zielony przycisk z czarnym krzyżykiem, aby powiększyć; na zielony przycisk z myślnikiem, aby pomniejszyć; na zielone strzałki, aby przejść do map sąsiednich.


METAR-TAF: